Time;durP1;ratioP1;P1;durP2;ratioP2;P2;SDS_P1;SDS_P2;PMS_P1;PMS_P2;Temp;Humidity;BMP_temperature;BMP_pressure;BME280_temperature;BME280_humidity;BME280_pressure;Samples;Min_cycle;Max_cycle;Signal;HPM_P1;HPM_P2
2021/09/06 00:07:38;;;;;;;16.02;11.15;;;;;;;16.51;79.31;100884.78;20663412;28;20499;-72
2021/09/06 00:17:40;;;;;;;15.63;11.25;;;;;;;16.45;79.51;100892.91;20661747;28;20100;-71
2021/09/06 00:27:42;;;;;;;16.05;11.25;;;;;;;16.41;79.41;100893.94;20645038;28;20054;-72
2021/09/06 00:37:44;;;;;;;14.65;11.05;;;;;;;16.45;79.02;100890.28;20660179;28;20046;-72
2021/09/06 00:47:46;;;;;;;16.80;11.68;;;;;;;16.34;78.66;100893.25;20659968;28;20463;-70
2021/09/06 00:57:48;;;;;;;17.38;11.43;;;;;;;16.39;78.73;100895.75;20659326;28;20046;-70
2021/09/06 01:07:50;;;;;;;18.77;10.85;;;;;;;16.31;78.99;100898.63;20658234;28;20046;-71
2021/09/06 01:17:51;;;;;;;17.25;10.88;;;;;;;16.12;79.51;100900.13;20657338;28;20050;-72
2021/09/06 01:27:52;;;;;;;16.58;11.27;;;;;;;16.08;79.27;100915.19;20656756;28;20050;-71
2021/09/06 01:37:54;;;;;;;16.92;11.88;;;;;;;15.96;79.15;100918.22;20656914;28;20050;-73
2021/09/06 01:47:56;;;;;;;17.88;11.38;;;;;;;15.91;79.49;100917.50;20657276;28;20481;-73
2021/09/06 01:57:58;;;;;;;20.40;11.50;;;;;;;15.84;79.68;100921.22;20657325;28;20548;-72
2021/09/06 02:08:00;;;;;;;16.30;11.68;;;;;;;15.67;80.92;100923.47;20663528;28;20046;-72
2021/09/06 02:18:02;;;;;;;18.83;12.00;;;;;;;15.61;81.20;100920.03;20673733;28;20117;-72
2021/09/06 02:28:04;;;;;;;19.00;12.13;;;;;;;15.49;81.50;100916.91;20656217;28;20050;-73
2021/09/06 02:38:06;;;;;;;18.98;12.40;;;;;;;15.45;81.77;100913.47;20690538;28;20057;-72
2021/09/06 02:48:07;;;;;;;19.13;12.27;;;;;;;15.33;82.33;100927.00;20686123;28;20050;-72
2021/09/06 02:58:09;;;;;;;19.20;12.38;;;;;;;15.22;82.83;100936.97;20670783;28;20400;-72
2021/09/06 03:08:11;;;;;;;18.27;11.82;;;;;;;15.16;83.02;100927.44;20654595;28;20459;-71
2021/09/06 03:18:13;;;;;;;18.20;12.60;;;;;;;15.17;82.89;100928.31;20669442;28;20393;-72
2021/09/06 03:28:15;;;;;;;16.75;11.90;;;;;;;15.19;82.93;100923.84;20665987;28;20432;-72
2021/09/06 03:38:17;;;;;;;21.05;12.60;;;;;;;15.11;83.43;100921.44;20675348;28;20412;-72
2021/09/06 03:48:19;;;;;;;20.27;13.52;;;;;;;14.89;84.31;100929.00;20668274;28;20047;-72
2021/09/06 03:58:21;;;;;;;19.98;13.63;;;;;;;14.77;84.69;100934.59;20671111;28;20058;-73
2021/09/06 04:08:24;;;;;;;19.77;14.00;;;;;;;14.78;85.12;100931.94;20661981;28;20043;-73
2021/09/06 04:18:27;;;;;;;20.60;13.95;;;;;;;14.60;85.57;100935.84;20645744;28;20105;-73
2021/09/06 04:28:29;;;;;;;20.33;14.15;;;;;;;14.58;85.30;100948.22;20661099;28;20054;-73
2021/09/06 04:38:31;;;;;;;22.17;14.80;;;;;;;14.64;85.75;100963.00;20643789;28;20047;-73
2021/09/06 04:48:34;;;;;;;25.00;15.32;;;;;;;14.61;85.29;100974.50;20660782;28;20050;-73
2021/09/06 04:58:36;;;;;;;23.48;16.45;;;;;;;14.54;85.96;100985.22;20660621;28;20101;-73
2021/09/06 05:08:38;;;;;;;24.80;16.50;;;;;;;14.49;86.08;100993.22;20641346;28;20042;-72
2021/09/06 05:18:40;;;;;;;24.92;16.55;;;;;;;14.53;86.02;101018.63;20658239;28;20047;-72
2021/09/06 05:28:42;;;;;;;26.67;16.98;;;;;;;14.68;85.34;101011.25;20658075;28;20046;-72
2021/09/06 05:38:44;;;;;;;27.50;17.25;;;;;;;14.73;85.51;101020.78;20656046;28;20067;-72
2021/09/06 05:48:46;;;;;;;26.80;17.45;;;;;;;14.91;85.17;101030.06;20670346;28;20641;-71
2021/09/06 05:58:48;;;;;;;24.83;16.20;;;;;;;15.11;84.16;101027.81;20670228;28;20051;-72
2021/09/06 06:08:49;;;;;;;22.58;15.32;;;;;;;15.36;83.79;101037.75;20654700;28;20042;-72
2021/09/06 06:18:51;;;;;;;23.65;14.13;;;;;;;15.70;82.09;101047.47;20653879;28;20072;-72
2021/09/06 06:28:53;;;;;;;21.90;13.38;;;;;;;16.03;81.07;101051.81;20654494;28;20149;-72
2021/09/06 06:38:55;;;;;;;18.48;11.55;;;;;;;16.19;79.96;101041.69;20651445;28;20624;-72
2021/09/06 06:48:57;;;;;;;15.57;11.20;;;;;;;16.51;78.19;101053.97;20648486;28;20080;-72
2021/09/06 06:58:59;;;;;;;16.45;9.75;;;;;;;16.77;77.40;101049.69;20662903;28;20050;-72
2021/09/06 07:09:01;;;;;;;13.73;9.10;;;;;;;16.98;76.33;101051.69;20707310;28;20046;-72
2021/09/06 07:19:03;;;;;;;14.48;9.15;;;;;;;17.26;73.44;101064.03;20682088;28;20115;-72
2021/09/06 07:29:05;;;;;;;12.73;8.82;;;;;;;17.51;73.00;101059.63;20707803;28;20057;-72
2021/09/06 07:39:07;;;;;;;15.02;9.05;;;;;;;17.73;72.31;101074.81;20653411;28;20105;-72
2021/09/06 07:49:08;;;;;;;16.13;8.57;;;;;;;17.96;70.20;101077.53;20665793;28;20078;-72
2021/09/06 07:59:10;;;;;;;13.88;8.45;;;;;;;18.25;69.70;101088.84;20648673;28;20076;-73
2021/09/06 08:09:13;;;;;;;14.60;7.72;;;;;;;18.58;67.20;101103.50;20646373;28;20046;-72
2021/09/06 08:19:16;;;;;;;13.27;7.85;;;;;;;18.95;66.37;101115.41;20741157;28;20054;-71
2021/09/06 08:29:18;;;;;;;12.88;8.25;;;;;;;19.13;66.28;101122.66;20744096;28;20046;-71
2021/09/06 08:39:20;;;;;;;13.15;7.80;;;;;;;19.49;66.66;101122.09;20742603;28;20103;-71
2021/09/06 08:49:22;;;;;;;10.32;7.10;;;;;;;19.94;63.69;101122.00;20724136;28;20535;-71
2021/09/06 08:59:24;;;;;;;12.18;7.05;;;;;;;20.23;62.31;101122.50;20741675;28;20046;-72
2021/09/06 09:09:27;;;;;;;11.35;6.97;;;;;;;20.59;60.85;101120.00;20740883;28;20050;-72
2021/09/06 09:19:29;;;;;;;12.07;6.57;;;;;;;21.06;57.73;101124.03;20661161;28;20065;-71
2021/09/06 09:29:31;;;;;;;10.55;6.57;;;;;;;21.46;57.73;101117.66;20658529;28;20042;-72
2021/09/06 09:39:34;;;;;;;9.23;6.50;;;;;;;21.72;56.48;101114.56;20659196;28;20101;-72
2021/09/06 09:49:37;;;;;;;9.40;6.28;;;;;;;21.99;55.69;101106.06;20659268;28;20050;-72
2021/09/06 09:59:41;;;;;;;15.40;7.33;;;;;;;22.53;54.00;101090.81;20657409;28;20090;-72
2021/09/06 10:09:44;;;;;;;9.77;6.33;;;;;;;22.69;53.69;101099.69;20656577;28;20476;-71
2021/09/06 10:19:50;;;;;;;10.47;6.07;;;;;;;23.06;54.22;101089.66;20575849;28;20054;-72
2021/09/06 10:30:06;;;;;;;10.38;6.43;;;;;;;23.25;52.03;101082.31;20584115;28;20051;-72
2021/09/06 10:40:12;;;;;;;13.65;7.00;;;;;;;23.75;50.38;101062.44;20590478;28;20050;-71
2021/09/06 10:50:20;;;;;;;10.73;6.57;;;;;;;23.98;48.16;101060.19;20589723;28;20082;-72
2021/09/06 11:00:23;;;;;;;10.18;6.05;;;;;;;24.12;47.63;101052.19;20588703;28;20085;-72
2021/09/06 11:10:25;;;;;;;9.10;6.33;;;;;;;24.37;46.41;101053.34;20599300;28;20088;-71
2021/09/06 11:20:29;;;;;;;11.25;5.97;;;;;;;24.44;46.95;101041.31;20750163;28;20049;-72
2021/09/06 11:30:33;;;;;;;11.03;6.30;;;;;;;24.89;44.40;101033.94;20749243;28;20054;-72
2021/09/06 11:40:36;;;;;;;9.98;6.43;;;;;;;25.12;45.23;101036.00;20750193;28;20304;-71
2021/09/06 11:50:39;;;;;;;10.18;6.43;;;;;;;25.15;42.59;101019.69;20746248;28;20053;-72
2021/09/06 12:00:42;;;;;;;10.48;6.18;;;;;;;25.36;42.37;101019.25;20729231;28;20092;-72
2021/09/06 12:10:46;;;;;;;8.90;5.90;;;;;;;25.45;43.68;101026.66;20741692;28;20042;-72
2021/09/06 12:21:02;;;;;;;8.40;5.53;;;;;;;25.87;40.36;101035.41;20650053;28;20050;-72
2021/09/06 12:31:05;;;;;;;7.65;4.90;;;;;;;25.84;34.68;101029.31;20662797;28;20065;-72
2021/09/06 12:41:08;;;;;;;7.45;4.97;;;;;;;25.97;32.26;101033.81;20662663;28;20042;-72
2021/09/06 12:51:10;;;;;;;8.82;4.82;;;;;;;26.16;31.07;101011.88;20642295;28;20104;-72
2021/09/06 13:01:11;;;;;;;7.68;4.70;;;;;;;25.87;33.72;101012.13;20660077;28;20043;-71
2021/09/06 13:11:14;;;;;;;7.93;4.35;;;;;;;26.12;33.50;101000.53;20671818;28;20057;-71
2021/09/06 13:21:15;;;;;;;8.07;4.60;;;;;;;26.63;29.62;100999.56;20740671;28;20124;-72
2021/09/06 13:31:17;;;;;;;10.00;4.82;;;;;;;26.46;29.68;100998.13;20738823;28;20096;-71
2021/09/06 13:41:19;;;;;;;9.57;5.22;;;;;;;26.41;29.25;100990.38;20739072;28;20073;-71
2021/09/06 13:51:21;;;;;;;10.15;4.82;;;;;;;26.25;28.44;100993.28;20741544;28;20566;-71
2021/09/06 14:01:24;;;;;;;6.70;4.10;;;;;;;26.61;27.30;100997.00;20725569;28;20046;-71
2021/09/06 14:11:26;;;;;;;7.37;4.60;;;;;;;26.75;28.86;100985.25;20742212;28;20060;-71
2021/09/06 14:21:28;;;;;;;8.38;4.78;;;;;;;26.46;29.67;100979.34;20657127;28;20050;-72
2021/09/06 14:31:31;;;;;;;8.52;5.05;;;;;;;26.62;28.97;100966.47;20672482;28;20113;-71
2021/09/06 14:41:33;;;;;;;8.10;4.70;;;;;;;26.54;30.52;100971.56;20671653;28;20137;-72
2021/09/06 14:51:35;;;;;;;7.10;4.72;;;;;;;26.14;29.05;100974.44;20674300;28;20065;-72
2021/09/06 15:01:37;;;;;;;7.50;4.90;;;;;;;26.26;31.84;100965.50;20675620;28;20042;-71
2021/09/06 15:11:40;;;;;;;8.07;4.50;;;;;;;26.15;31.03;100957.34;20686178;28;20423;-71
2021/09/06 15:21:41;;;;;;;7.55;5.15;;;;;;;26.27;30.46;100961.84;20749896;28;20115;-71
2021/09/06 15:31:49;;;;;;;7.78;4.65;;;;;;;26.35;29.55;100955.94;20731863;28;20058;-72
2021/09/06 15:41:51;;;;;;;8.98;5.35;;;;;;;26.40;29.78;100945.72;20748406;28;20483;-72
2021/09/06 15:51:53;;;;;;;9.27;5.30;;;;;;;26.19;30.10;100952.63;20748546;28;20045;-73
2021/09/06 16:01:55;;;;;;;11.73;5.90;;;;;;;26.24;31.10;100953.16;20748061;28;20124;-72
2021/09/06 16:11:58;;;;;;;13.27;5.15;;;;;;;26.28;30.46;100947.44;20742478;28;20508;-72
2021/09/06 16:22:00;;;;;;;9.93;5.10;;;;;;;26.01;31.59;100944.91;20657410;28;20108;-72
2021/09/06 16:32:01;;;;;;;9.85;5.65;;;;;;;26.00;32.81;100936.97;20673837;28;20417;-72
2021/09/06 16:42:04;;;;;;;8.35;4.70;;;;;;;25.83;32.98;100941.75;20662200;28;20167;-72
2021/09/06 16:52:06;;;;;;;7.68;5.07;;;;;;;25.54;35.10;100942.91;20661387;28;20105;-73
2021/09/06 17:02:07;;;;;;;9.63;5.00;;;;;;;25.33;36.50;100942.56;20660694;28;20050;-72
2021/09/06 17:12:10;;;;;;;9.73;5.40;;;;;;;24.92;41.06;100946.22;20662509;28;20045;-72
2021/09/06 17:22:12;;;;;;;8.27;4.80;;;;;;;24.43;43.42;100940.53;20740348;28;20092;-73
2021/09/06 17:32:15;;;;;;;14.15;5.50;;;;;;;24.02;44.73;100946.69;20724974;28;20108;-72
2021/09/06 17:42:16;;;;;;;9.93;5.20;;;;;;;23.35;47.82;100948.16;20739362;28;20065;-72
2021/09/06 17:52:19;;;;;;;9.40;5.45;;;;;;;22.88;50.01;100962.47;20739718;28;20439;-72
2021/09/06 18:02:22;;;;;;;8.77;5.93;;;;;;;22.34;51.30;100957.53;20738654;28;20049;-72
2021/09/06 18:12:24;;;;;;;9.07;5.90;;;;;;;22.05;52.78;100953.78;20704756;28;20398;-71
2021/09/06 18:22:26;;;;;;;9.75;6.10;;;;;;;21.62;54.35;100969.41;20657600;28;20054;-71
2021/09/06 18:32:28;;;;;;;9.00;5.70;;;;;;;21.25;55.21;100976.59;20654917;28;20047;-71
2021/09/06 18:42:30;;;;;;;11.32;6.22;;;;;;;21.00;56.73;100992.09;20655138;28;20050;-71
2021/09/06 18:52:32;;;;;;;8.95;5.97;;;;;;;20.70;57.52;100992.66;20665213;28;20129;-71
2021/09/06 19:02:34;;;;;;;8.35;6.20;;;;;;;20.33;58.69;101006.81;20670225;28;20054;-73
2021/09/06 19:12:38;;;;;;;10.30;5.90;;;;;;;20.10;59.77;101010.50;20692790;28;20053;-72
2021/09/06 19:22:41;;;;;;;9.07;6.30;;;;;;;19.69;61.12;101010.59;20732742;28;20463;-72
2021/09/06 19:32:43;;;;;;;10.88;7.00;;;;;;;19.64;61.91;101011.69;20749812;28;20297;-73
2021/09/06 19:42:45;;;;;;;12.38;7.55;;;;;;;19.27;63.64;101026.53;20749229;28;20046;-73
2021/09/06 19:52:47;;;;;;;11.27;6.95;;;;;;;19.02;65.15;101028.44;20749142;28;20081;-73
2021/09/06 20:02:50;;;;;;;11.18;6.53;;;;;;;18.83;66.41;101038.94;20747801;28;20049;-73
2021/09/06 20:12:53;;;;;;;10.55;7.03;;;;;;;18.58;66.46;101044.31;20721145;28;20461;-73
2021/09/06 20:22:56;;;;;;;13.02;7.53;;;;;;;18.38;66.56;101058.34;20647323;28;20046;-72
2021/09/06 20:32:59;;;;;;;12.55;7.50;;;;;;;18.36;66.92;101065.50;20663103;28;20050;-73
2021/09/06 20:43:09;;;;;;;11.32;7.43;;;;;;;18.28;67.71;101071.06;20662670;28;20539;-73
2021/09/06 20:53:11;;;;;;;12.60;8.05;;;;;;;18.16;68.85;101075.03;20660656;28;20051;-73
2021/09/06 21:03:12;;;;;;;12.65;8.30;;;;;;;17.98;69.41;101067.75;20659939;28;20050;-73
2021/09/06 21:13:14;;;;;;;12.23;8.05;;;;;;;17.79;69.39;101066.66;20670859;28;20073;-72
2021/09/06 21:23:16;;;;;;;11.75;8.30;;;;;;;17.40;71.51;101069.72;20740756;28;20050;-73
2021/09/06 21:33:18;;;;;;;11.55;8.13;;;;;;;17.19;72.47;101074.78;20739596;28;20050;-72
2021/09/06 21:43:22;;;;;;;12.27;8.00;;;;;;;17.07;72.48;101064.63;20723015;28;20050;-73
2021/09/06 21:53:25;;;;;;;11.88;8.10;;;;;;;16.84;73.99;101070.63;20723487;28;20554;-73
2021/09/06 22:03:27;;;;;;;12.63;8.45;;;;;;;16.86;73.20;101071.47;20730479;28;20653;-73
2021/09/06 22:13:29;;;;;;;11.73;8.52;;;;;;;16.86;74.28;101083.78;20630963;28;20105;-73
2021/09/06 22:23:31;;;;;;;15.05;8.80;;;;;;;16.86;73.51;101092.63;20598104;28;20113;-73
2021/09/06 22:33:32;;;;;;;13.15;9.32;;;;;;;16.70;74.65;101098.38;20573454;28;20050;-70
2021/09/06 22:43:34;;;;;;;13.48;8.98;;;;;;;16.59;75.15;101099.56;20590164;28;20483;-73
2021/09/06 22:53:36;;;;;;;13.55;10.00;;;;;;;16.41;75.51;101095.66;20588684;28;20129;-72
2021/09/06 23:15:26;;;;;;;14.25;10.18;;;;;;;15.92;77.71;101106.72;20658963;28;20034;-73
2021/09/06 23:25:50;;;;;;;15.25;10.40;;;;;;;15.95;77.72;101114.53;20668405;28;20463;-73
2021/09/06 23:35:52;;;;;;;17.13;10.75;;;;;;;15.96;76.68;101102.25;20666959;28;20054;-73
2021/09/06 23:45:53;;;;;;;15.35;10.07;;;;;;;15.97;76.94;101094.25;20666875;28;20050;-73
2021/09/06 23:55:55;;;;;;;14.20;9.82;;;;;;;15.93;77.45;101094.38;20648296;28;20058;-73
